Time;durP1;ratioP1;P1;durP2;ratioP2;P2;SDS_P1;SDS_P2;PMS_P1;PMS_P2;Temp;Humidity;BMP_temperature;BMP_pressure;BME280_temperature;BME280_humidity;BME280_pressure;Samples;Min_cycle;Max_cycle;Signal;HPM_P1;HPM_P2
2023/02/19 13:47:31;;;;;;;;;;;;;;;10.41;72.43;98640.09;5921447;23;20877;-66
2023/02/19 13:50:03;;;;;;;;;;;;;;;10.30;72.83;98642.53;4906712;29;20310;-65
2023/02/19 13:52:28;;;;;;;;;;;;;;;10.28;72.54;98648.81;4909500;29;19919;-65
2023/02/19 13:55:13;;;;;;;;;;;;;;;10.30;71.77;98650.41;4910532;29;19926;-65
2023/02/19 13:57:40;;;;;;;;;;;;;;;10.32;71.46;98642.44;4906214;29;20444;-65
2023/02/19 14:00:21;;;;;;;;;;;;;;;10.42;70.99;98649.66;4897981;29;19946;-65
2023/02/19 14:02:47;;;;;;;;;;;;;;;10.38;70.22;98668.28;4897802;29;19931;-65
2023/02/19 14:05:12;;;;;;;;;;;;;;;10.40;70.39;98669.91;4900304;29;19919;-65
2023/02/19 14:07:48;;;;;;;;;;;;;;;10.24;70.53;98669.09;4894121;29;19919;-65
2023/02/19 14:10:33;;;;;;;;;;;;;;;9.97;72.28;98682.88;4875106;29;20305;-65
2023/02/19 14:12:58;;;;;;;;;;;;;;;9.89;72.72;98681.66;4898924;29;19916;-65
2023/02/19 14:15:23;;;;;;;;;;;;;;;9.85;72.51;98683.63;4896916;29;19926;-65
2023/02/19 14:17:49;;;;;;;;;;;;;;;9.79;72.70;98678.72;4893145;29;19920;-65
2023/02/19 14:20:14;;;;;;;;;;;;;;;9.90;72.38;98688.59;4897223;29;19923;-65
2023/02/19 14:22:42;;;;;;;;;;;;;;;9.89;71.57;98689.53;4913337;29;20354;-65
2023/02/19 14:25:08;;;;;;;;;;;;;;;9.71;72.10;98697.50;4904117;29;20010;-64
2023/02/19 14:27:34;;;;;;;;;;;;;;;9.73;72.50;98710.50;4895109;29;20444;-65
2023/02/19 14:29:59;;;;;;;;;;;;;;;9.80;72.47;98695.28;4895379;29;19923;-65
2023/02/19 14:32:24;;;;;;;;;;;;;;;9.87;72.23;98707.09;4897654;29;20014;-65
2023/02/19 14:34:49;;;;;;;;;;;;;;;9.85;72.37;98703.75;4897437;29;20051;-65
2023/02/19 14:37:15;;;;;;;;;;;;;;;9.88;72.41;98708.81;4894422;29;19970;-65
2023/02/19 14:39:42;;;;;;;;;;;;;;;10.06;72.13;98709.50;4891139;29;19923;-65
2023/02/19 14:42:11;;;;;;;;;;;;;;;10.33;70.40;98707.06;4876781;29;19920;-65
2023/02/19 14:44:41;;;;;;;;;;;;;;;10.30;69.89;98712.50;4893658;29;19920;-65
2023/02/19 14:47:08;;;;;;;;;;;;;;;10.43;69.66;98713.47;4896532;29;19916;-65
2023/02/19 14:49:53;;;;;;;;;;;;;;;10.33;69.04;98710.53;4901622;29;19926;-64
2023/02/19 14:52:25;;;;;;;;;;;;;;;10.23;69.37;98712.81;4895914;29;19920;-65
2023/02/19 14:55:00;;;;;;;;;;;;;;;10.32;69.63;98719.31;4881445;29;19915;-65
2023/02/19 14:57:29;;;;;;;;;;;;;;;10.34;69.37;98724.47;4898060;29;19919;-65
2023/02/19 14:59:58;;;;;;;;;;;;;;;10.42;68.34;98730.09;4895675;29;19927;-65
2023/02/19 15:02:24;;;;;;;;;;;;;;;11.00;66.98;98736.22;4894845;29;20014;-65
2023/02/19 15:04:50;;;;;;;;;;;;;;;11.30;65.46;98728.22;4898068;29;20459;-65
2023/02/19 15:07:19;;;;;;;;;;;;;;;11.60;65.37;98725.44;4895524;29;19919;-64
2023/02/19 15:09:46;;;;;;;;;;;;;;;11.92;64.18;98725.16;4896237;29;20002;-65
2023/02/19 15:12:18;;;;;;;;;;;;;;;12.04;63.78;98719.94;4893757;29;20373;-65
2023/02/19 15:14:43;;;;;;;;;;;;;;;12.10;63.14;98721.28;4896424;29;19915;-66
2023/02/19 15:17:09;;;;;;;;;;;;;;;12.11;62.46;98728.22;4898972;29;19927;-65
2023/02/19 15:19:35;;;;;;;;;;;;;;;12.00;62.84;98717.59;4903306;29;20378;-64
2023/02/19 15:22:00;;;;;;;;;;;;;;;11.79;64.52;98722.44;4889842;29;19927;-65
2023/02/19 15:24:27;;;;;;;;;;;;;;;11.76;64.99;98720.00;4888722;29;19921;-65
2023/02/19 15:26:53;;;;;;;;;;;;;;;11.72;65.42;98713.28;4901405;29;19923;-65
2023/02/19 15:29:19;;;;;;;;;;;;;;;11.40;66.02;98718.81;4896326;29;19923;-65
2023/02/19 15:31:44;;;;;;;;;;;;;;;11.12;67.68;98719.72;4885684;29;19924;-65
2023/02/19 15:34:16;;;;;;;;;;;;;;;10.82;68.43;98717.22;4896409;29;19928;-65
2023/02/19 15:36:41;;;;;;;;;;;;;;;10.75;69.05;98718.53;4884107;29;20286;-64
2023/02/19 15:39:11;;;;;;;;;;;;;;;10.60;69.64;98721.16;4888430;29;20067;-65
2023/02/19 15:41:36;;;;;;;;;;;;;;;10.34;70.05;98717.47;4889628;29;20478;-65
2023/02/19 15:44:08;;;;;;;;;;;;;;;10.19;70.70;98721.81;4880404;29;20010;-64
2023/02/19 15:46:33;;;;;;;;;;;;;;;10.13;70.94;98724.78;4886478;29;20309;-64
2023/02/19 15:49:06;;;;;;;;;;;;;;;10.08;71.49;98720.72;4891210;29;19920;-65
2023/02/19 15:51:36;;;;;;;;;;;;;;;10.02;72.13;98726.34;4893684;29;20400;-64
2023/02/19 15:54:06;;;;;;;;;;;;;;;9.94;72.80;98718.91;4889845;29;19923;-64
2023/02/19 15:56:31;;;;;;;;;;;;;;;9.87;72.94;98717.56;4886553;29;20305;-63
2023/02/19 15:58:58;;;;;;;;;;;;;;;9.89;72.50;98721.81;4892140;29;19923;-64
2023/02/19 16:01:24;;;;;;;;;;;;;;;9.89;72.65;98723.59;4891936;29;19942;-63
2023/02/19 16:03:50;;;;;;;;;;;;;;;9.91;72.96;98726.94;4903242;29;20334;-64
2023/02/19 16:06:16;;;;;;;;;;;;;;;9.89;72.63;98731.44;4886445;29;19923;-65
2023/02/19 16:08:42;;;;;;;;;;;;;;;9.88;72.23;98740.25;4910131;29;20009;-65
2023/02/19 16:11:22;;;;;;;;;;;;;;;9.85;72.33;98740.41;4891954;29;19930;-67
2023/02/19 16:13:48;;;;;;;;;;;;;;;9.77;72.82;98747.84;4893275;29;19926;-65
2023/02/19 16:16:16;;;;;;;;;;;;;;;9.73;72.32;98762.91;4891438;29;19919;-65
2023/02/19 16:18:42;;;;;;;;;;;;;;;9.60;73.09;98765.38;4896671;29;20142;-65
2023/02/19 16:21:08;;;;;;;;;;;;;;;9.49;73.53;98757.25;4892110;29;20407;-65
2023/02/19 16:23:33;;;;;;;;;;;;;;;9.37;73.77;98763.19;4896023;29;19919;-65
2023/02/19 16:25:59;;;;;;;;;;;;;;;9.30;74.14;98762.66;4894057;29;20297;-64
2023/02/19 16:28:25;;;;;;;;;;;;;;;9.19;74.76;98767.66;4895401;29;19997;-65
2023/02/19 16:30:56;;;;;;;;;;;;;;;9.05;75.24;98773.63;4896673;29;20089;-65
2023/02/19 16:33:34;;;;;;;;;;;;;;;8.95;75.47;98768.03;4896484;29;19919;-65
2023/02/19 16:36:18;;;;;;;;;;;;;;;8.83;76.15;98765.22;4894358;29;19923;-65
2023/02/19 16:39:11;;;;;;;;;;;;;;;8.84;76.25;98756.41;4890653;29;19928;-64
2023/02/19 16:41:40;;;;;;;;;;;;;;;8.80;76.71;98753.13;4889651;29;19919;-65
2023/02/19 16:44:26;;;;;;;;;;;;;;;8.78;76.72;98762.84;4888134;29;20324;-64
2023/02/19 16:46:52;;;;;;;;;;;;;;;8.73;76.99;98763.06;4880180;29;19920;-65
2023/02/19 16:49:17;;;;;;;;;;;;;;;8.70;77.28;98771.06;4894195;29;20010;-65
2023/02/19 16:51:43;;;;;;;;;;;;;;;8.64;77.38;98765.34;4892117;29;19926;-65
2023/02/19 16:54:08;;;;;;;;;;;;;;;8.64;77.74;98771.41;4894182;29;19920;-64
2023/02/19 16:56:33;;;;;;;;;;;;;;;8.61;78.00;98773.34;4893063;29;19919;-65
2023/02/19 16:58:58;;;;;;;;;;;;;;;8.55;78.71;98777.09;4888908;29;19924;-65
2023/02/19 17:01:23;;;;;;;;;;;;;;;8.53;78.74;98778.94;4890119;29;19927;-65
2023/02/19 17:03:49;;;;;;;;;;;;;;;8.50;78.87;98789.56;4892828;29;20006;-64
2023/02/19 17:06:14;;;;;;;;;;;;;;;8.45;79.37;98795.00;4894153;29;20117;-65
2023/02/19 17:08:40;;;;;;;;;;;;;;;8.45;79.40;98802.84;4894906;29;20002;-65
2023/02/19 17:11:06;;;;;;;;;;;;;;;8.44;79.51;98805.56;4895527;29;19955;-65
2023/02/19 17:13:31;;;;;;;;;;;;;;;8.39;79.89;98818.00;4888424;29;20032;-65
2023/02/19 17:15:56;;;;;;;;;;;;;;;8.40;80.07;98822.31;4891773;29;20468;-65
2023/02/19 17:18:21;;;;;;;;;;;;;;;8.37;80.24;98830.28;4889329;29;19923;-65
2023/02/19 17:20:48;;;;;;;;;;;;;;;8.33;81.57;98830.44;4887944;29;19924;-65
2023/02/19 17:23:13;;;;;;;;;;;;;;;8.35;81.50;98826.88;4889222;29;19931;-64
2023/02/19 17:25:38;;;;;;;;;;;;;;;8.36;82.04;98828.56;4895896;29;19919;-65
2023/02/19 17:28:04;;;;;;;;;;;;;;;8.35;81.86;98829.50;4891484;29;19978;-65
2023/02/19 17:30:30;;;;;;;;;;;;;;;8.34;81.52;98841.72;4897683;29;20010;-65
2023/02/19 17:32:55;;;;;;;;;;;;;;;8.29;82.03;98847.19;4894934;29;20300;-65
2023/02/19 17:35:20;;;;;;;;;;;;;;;8.29;81.53;98851.56;4888995;29;20381;-65
2023/02/19 17:37:46;;;;;;;;;;;;;;;8.27;81.69;98854.25;4898226;29;20389;-65
2023/02/19 17:40:17;;;;;;;;;;;;;;;8.25;81.38;98856.09;4898074;29;20423;-66
2023/02/19 17:42:43;;;;;;;;;;;;;;;8.20;81.43;98849.41;4895801;29;19927;-64
2023/02/19 17:45:08;;;;;;;;;;;;;;;8.17;82.14;98854.78;4895130;29;19924;-66
2023/02/19 17:47:33;;;;;;;;;;;;;;;8.14;81.70;98855.75;4895572;29;20014;-66
2023/02/19 17:50:00;;;;;;;;;;;;;;;8.11;81.87;98868.97;4895573;29;20010;-66
2023/02/19 17:52:26;;;;;;;;;;;;;;;8.07;82.85;98875.28;4892690;29;19934;-65
2023/02/19 17:54:51;;;;;;;;;;;;;;;8.08;82.28;98887.41;4892216;29;20068;-66
2023/02/19 17:57:17;;;;;;;;;;;;;;;8.03;82.83;98879.78;4890991;29;19926;-66
2023/02/19 17:59:42;;;;;;;;;;;;;;;7.99;83.24;98882.63;4895024;29;19923;-65
2023/02/19 18:02:07;;;;;;;;;;;;;;;7.99;82.77;98893.94;4896095;29;19926;-65
2023/02/19 18:04:32;;;;;;;;;;;;;;;7.96;83.35;98898.44;4897855;29;19990;-66
2023/02/19 18:06:58;;;;;;;;;;;;;;;7.94;83.59;98905.50;4894974;29;19919;-66
2023/02/19 18:09:23;;;;;;;;;;;;;;;7.91;83.39;98905.63;4895508;29;20385;-66
2023/02/19 18:11:48;;;;;;;;;;;;;;;7.90;84.05;98904.78;4909135;29;20358;-65
2023/02/19 18:14:13;;;;;;;;;;;;;;;7.89;84.27;98905.72;4895058;29;20461;-64
2023/02/19 18:16:43;;;;;;;;;;;;;;;7.91;83.65;98906.47;4895333;29;20382;-65
2023/02/19 18:19:08;;;;;;;;;;;;;;;7.92;83.29;98913.41;4892684;29;20016;-65
2023/02/19 18:21:34;;;;;;;;;;;;;;;7.91;83.73;98921.31;4893251;29;20004;-66
2023/02/19 18:23:59;;;;;;;;;;;;;;;7.93;84.12;98919.50;4896620;29;20003;-66
2023/02/19 18:26:24;;;;;;;;;;;;;;;7.91;83.97;98922.16;4894903;29;20014;-66
2023/02/19 18:28:49;;;;;;;;;;;;;;;7.91;84.10;98919.53;4891934;29;20014;-65
2023/02/19 18:31:15;;;;;;;;;;;;;;;7.92;83.91;98920.41;4896611;29;19923;-66
2023/02/19 18:33:40;;;;;;;;;;;;;;;7.93;83.75;98920.31;4889612;29;19926;-66
2023/02/19 18:36:08;;;;;;;;;;;;;;;7.98;83.87;98927.94;4894821;29;20369;-66
2023/02/19 18:38:33;;;;;;;;;;;;;;;7.99;84.20;98925.28;4895718;29;19920;-66
2023/02/19 18:40:58;;;;;;;;;;;;;;;8.01;83.88;98925.19;4893004;29;19976;-66
2023/02/19 18:43:24;;;;;;;;;;;;;;;8.01;84.26;98922.56;4894347;29;19923;-66
2023/02/19 18:45:49;;;;;;;;;;;;;;;8.03;84.51;98931.22;4896657;29;19926;-66
2023/02/19 18:48:14;;;;;;;;;;;;;;;8.05;84.06;98934.56;4887838;29;19923;-66
2023/02/19 18:50:39;;;;;;;;;;;;;;;8.05;84.34;98934.56;4896019;29;19935;-66
2023/02/19 18:53:05;;;;;;;;;;;;;;;8.04;83.79;98940.72;4894185;29;19931;-66
2023/02/19 18:55:30;;;;;;;;;;;;;;;8.02;83.39;98945.19;4895347;29;20072;-66
2023/02/19 18:57:55;;;;;;;;;;;;;;;8.03;83.72;98950.34;4896937;29;19922;-66
2023/02/19 19:00:22;;;;;;;;;;;;;;;8.02;84.27;98939.97;4882921;29;19931;-66
2023/02/19 19:02:47;;;;;;;;;;;;;;;7.98;83.52;98934.03;4896577;29;19916;-66
2023/02/19 19:05:13;;;;;;;;;;;;;;;7.99;82.98;98932.28;4894866;29;19927;-66
2023/02/19 19:07:38;;;;;;;;;;;;;;;7.97;83.16;98939.31;4893362;29;19999;-66
2023/02/19 19:10:03;;;;;;;;;;;;;;;7.93;83.42;98940.38;4895862;29;20440;-66
2023/02/19 19:12:28;;;;;;;;;;;;;;;7.97;83.04;98940.16;4895284;29;19919;-66
2023/02/19 19:14:54;;;;;;;;;;;;;;;7.98;83.46;98938.38;4892806;29;19919;-66
2023/02/19 19:17:19;;;;;;;;;;;;;;;7.99;83.54;98945.34;4890270;29;19920;-66
2023/02/19 19:19:44;;;;;;;;;;;;;;;7.93;83.84;98948.22;4894463;29;19931;-66
2023/02/19 19:22:09;;;;;;;;;;;;;;;7.93;83.42;98961.28;4894578;29;19919;-66
2023/02/19 19:24:35;;;;;;;;;;;;;;;7.96;82.93;98963.75;4890512;29;19924;-65
2023/02/19 19:27:00;;;;;;;;;;;;;;;7.94;83.60;98962.97;4886766;29;19930;-66
2023/02/19 19:29:25;;;;;;;;;;;;;;;7.96;83.33;98961.16;4890785;29;19920;-66
2023/02/19 19:31:50;;;;;;;;;;;;;;;7.92;83.52;98968.28;4886698;29;20397;-66
2023/02/19 19:34:16;;;;;;;;;;;;;;;7.89;83.40;98959.72;4893888;29;19919;-65
2023/02/19 19:36:41;;;;;;;;;;;;;;;7.89;82.76;98964.97;4880694;29;19926;-65
2023/02/19 19:39:07;;;;;;;;;;;;;;;7.90;83.25;98967.47;4890337;29;19928;-65
2023/02/19 19:41:33;;;;;;;;;;;;;;;7.91;83.40;98968.31;4890113;29;19927;-66
2023/02/19 19:44:00;;;;;;;;;;;;;;;7.89;82.90;98967.56;4892274;29;19926;-66
2023/02/19 19:46:25;;;;;;;;;;;;;;;7.91;82.90;98973.56;4895053;29;19957;-66
2023/02/19 19:48:51;;;;;;;;;;;;;;;7.91;82.56;98971.78;4894133;29;19951;-66
2023/02/19 19:51:17;;;;;;;;;;;;;;;7.92;83.13;98975.28;4891968;29;19966;-66
2023/02/19 19:53:43;;;;;;;;;;;;;;;7.90;82.80;98977.94;4889888;29;19927;-66
2023/02/19 19:56:08;;;;;;;;;;;;;;;7.90;82.54;98977.09;4888868;29;20300;-67
2023/02/19 19:58:36;;;;;;;;;;;;;;;8.34;82.20;98975.03;4893144;29;19919;-65
2023/02/19 20:01:01;;;;;;;;;;;;;;;8.25;82.57;98978.91;4894393;29;19927;-64
2023/02/19 20:03:27;;;;;;;;;;;;;;;8.17;81.93;98980.22;4901495;29;19920;-65
2023/02/19 20:05:52;;;;;;;;;;;;;;;8.09;82.40;98985.78;4901791;29;20354;-65
2023/02/19 20:08:17;;;;;;;;;;;;;;;8.00;82.98;98980.97;4894101;29;20381;-65
2023/02/19 20:10:42;;;;;;;;;;;;;;;7.94;83.50;98989.09;4894840;29;19926;-65
2023/02/19 20:13:08;;;;;;;;;;;;;;;7.92;83.27;98996.16;4909558;29;19927;-65
2023/02/19 20:15:33;;;;;;;;;;;;;;;7.89;83.03;98991.06;4891392;29;19985;-65
2023/02/19 20:17:59;;;;;;;;;;;;;;;7.89;83.02;98989.31;4893429;29;19991;-64
